AirNav   Air Wisconsin Up To $57,000 Bonus
 
 340 users online  

MO7 St Louis Downtown Heliport
St Louis, Missouri, USA

GOING TO ST LOUIS?


FAA INFORMATION EFFECTIVE 05 NOVEMBER 2020

Location

FAA Identifier: MO7
Lat/Long: 38-37-31.2000N 090-10-58.8000W
38-37.520000N 090-10.980000W
38.6253333,-90.1830000
(estimated)
Elevation: 387 ft. / 118 m (estimated)
Time zone: UTC -6 (UTC -5 during Daylight Saving Time)
Zip code: 63101

Heliport Operations

Heliport use: Open to the public
Activation date: 07/2006
Control tower: no
ARTCC: KANSAS CITY CENTER
FSS: SAINT LOUIS FLIGHT SERVICE STATION
NOTAMs facility: STL (NOTAM-D service available)
Attendance: 0900-1900
SVC AFT HRS ABVL FOR FEE; CONTACT HELIPORT MGR.
Wind indicator: yes
Segmented circle: no

Heliport Communications

UNICOM: 122.8
WX ASOS at CPS (4 nm S): PHONE 618-332-0001
WX ASOS at STL (11 nm NW): 125.025 (314-890-4790)
WX AWOS-3 at ALN (17 nm N): 128.0 (618-259-7231)

Nearby radio navigation aids

VOR radial/distance  VOR name  Freq  Var
TOYr237/14.1TROY VORTAC116.0004E
STLr134/19.9ST LOUIS VORTAC117.4001E
FTZr091/37.2FORISTELL VORTAC110.8005E

 
NDB name  Hdg/Dist  Freq  Var  ID
ACORE317/8.635000ECP -.-. .--.
CIVIC MEMORIAL201/17.126301WCVM -.-. ...- --

Heliport Services

Runway Information

Helipad H1

Dimensions: 37 x 37 ft. / 11 x 11 m
Surface: mats, in good condition
RIVER BARGE PLATFOR MEASURES APRXLY 175 FT BY 54 FT.
Traffic pattern: leftleft
Markings: basic, in good condition

Heliport Ownership and Management from official FAA records

Ownership: Privately-owned
Owner: BI STATE DEVELOPMENT AGENCY
1680 SAUGET INDUSTRIAL PKWY
SAUGET, IL 62206
Phone 618-337-6060
Manager: ERICK DAHL
6100 ARCHVIEW DRIVE
CAHOKIA, IL 62206-1445
Phone 618-337-6060

Heliport Operational Statistics

Aircraft operations: avg 57/day *
100% local general aviation
* for 12-month period ending 31 December 2018

Additional Remarks

CALL HELIPORT MGR BEFORE ARR FOR LNDG AVAILABILITY DUE TO HVY CONCENTRATION OF AIR TAXI OPNS.
LNDGS FM THE SOUTHE & EAST ARE RECOMMENDED.
DAYLIGHT OPNS ONLY; NGT OPNS NOT RECOMMENDED.
FOR CD CTC ST LOUIS APCH AT 314-890-1017.

Instrument Procedures

There are no published instrument procedures at MO7.

Some nearby airports with instrument procedures:

KCPS - St Louis Downtown Airport (4 nm S)
KSTL - St Louis Lambert International Airport (11 nm NW)
1H0 - Creve Coeur Airport (16 nm W)
KBLV - Scott Air Force Base/MidAmerica Airport (17 nm E)
KALN - St Louis Regional Airport (17 nm N)
 
Loc | Ops | Rwys | IFR | FBO | Links
Com | Nav | Svcs | Stats | Notes
Area around MO7 (St Louis Downtown Heliport)
 
Road maps at: MapQuest Bing Google
 
Aerial photo
WARNING: Photo may not be current or correct
Aerial photo of MO7 (St Louis Downtown Heliport)
Do you have a better or more recent aerial photo of St Louis Downtown Heliport that you would like to share? If so, please send us your photo.

 
Sectional chart

 
Airport distance calculator
Flying to St Louis Downtown Heliport? Find the distance to fly.

From to MO7

Sunrise and sunset
Times for 02-Dec-2020
 Local
(UTC-6)
 Zulu
(UTC)
Morning civil twilight06:3312:33
Sunrise07:0313:03
Sunset16:3922:39
Evening civil twilight17:0823:08

Current date and time
Zulu (UTC)  02-Dec-2020 08:55:26
Local (UTC-6)  02-Dec-2020 02:55:26
 
METAR
KCPS 
4nm SE 
020753Z AUTO 00000KT 10SM CLR M06/M07 A3030 RMK AO2 SLP264 I1000 T10611067
KSTL 
11nm NW 
020751Z 00000KT 10SM FEW250 M03/M08 A3029 RMK AO2 SLP267 T10331078
KALN 
17nm NE 
020835Z AUTO 00000KT 10SM CLR M07/M07 A3031 RMK AO2 T10701070
KBLV 
17nm E 
020756Z AUTO 00000KT 10SM CLR M06/M06 A3029 RMK AO2 SLP266 T10581061 $
TAF
KCPS 
4nm SE 
020520Z 0206/0306 VRB04KT P6SM BKN250
KSTL 
11nm NW 
020520Z 0206/0312 VRB04KT P6SM BKN250 FM030800 11004KT P6SM OVC090
KBLV 
17nm E 
020800Z 0208/0314 VRB06KT 9999 SKC QNH3028INS BECMG 0307/0308 VRB06KT 9999 SCT100 QNH3025INS TX06/0218Z TNM05/0208Z
NOTAMs
Click for the latest NOTAMs
NOTAMs are issued by the DoD/FAA and will open in a separate window not controlled by AirNav.

 

 
 

Would you like to see your business listed on this page?

 If your business provides an interesting product or service to pilots, flight crews, aircraft, or users of the St Louis Downtown Heliport, you should consider listing it here.  To start the listing process, click on the button below
 
Add a business
 

Other Pages about St Louis Downtown Heliport

Update a link
 
Copyright © AirNav, LLC. All rights reserved. Privacy Policy  Contact